Latest Weather Observations for Noarlunga

IDS60901

Issued at 7:45 pm CST Monday 28 July 2014 (issued every 10 minutes, with the page automatically refreshed every 10 minutes)

About weather observations | Map of Adelaide area stations | Latest observations for Adelaide area | Other Formats
Station Details ID: 023885 Name: NOARLUNGA Lat: -35.16 Lon: 138.51 Height: 55.0 m
Data from the previous 72 hours. | See also: Recent months at Noarlunga
Date/Time
CST
Tmp

°C
App
Tmp
°C
Dew
Point
°C
Rel
Hum
%
Delta-T

°C
Wind Press
QNH
hPa
Press
MSL
hPa
Rain
since
9 am
mm
Dir
 
Spd
km/h
Gust
km/h
Spd
kts
Gust
kts
28/07:30pm 13.0 8.9 10.0 82 1.5 N 22 33 12 18 - - 0.0
28/07:00pm 13.1 8.9 9.9 81 1.6 N 22 30 12 16 - - 0.0
28/06:30pm 13.2 9.5 10.0 81 1.7 N 20 28 11 15 - - 0.0
28/06:00pm 13.1 9.4 10.1 82 1.6 N 20 30 11 16 - - 0.0
28/05:30pm 13.4 9.7 10.2 81 1.7 N 20 32 11 17 - - 0.0
28/05:00pm 13.8 9.8 10.6 81 1.7 N 22 33 12 18 - - 0.0
28/04:30pm 14.1 9.7 10.5 79 1.9 N 24 35 13 19 - - 0.0
28/04:00pm 14.5 10.1 10.5 77 2.1 N 24 35 13 19 - - 0.0
28/03:30pm 14.7 10.3 10.5 76 2.2 N 24 39 13 21 - - 0.0
28/03:00pm 14.7 10.0 10.5 76 2.2 N 26 37 14 20 - - 0.0
28/02:30pm 14.4 10.3 10.2 76 2.2 N 22 33 12 18 - - 0.0
28/02:00pm 14.8 11.3 10.8 77 2.1 N 20 32 11 17 - - 0.0
28/01:30pm 13.8 10.4 10.4 80 1.8 NNW 19 28 10 15 - - 0.0
28/01:00pm 14.9 11.8 11.7 81 1.7 N 19 26 10 14 - - 0.0
28/12:30pm 14.4 10.9 11.0 80 1.8 NNW 20 28 11 15 - - 0.0
28/12:00pm 14.4 10.8 10.6 78 2.0 N 20 30 11 16 - - 0.0
28/11:30am 13.5 9.4 10.1 80 1.8 N 22 32 12 17 - - 0.0
28/11:00am 13.6 10.2 10.6 82 1.6 N 19 30 10 16 - - 0.0
28/10:30am 13.2 9.8 10.4 83 1.5 N 19 28 10 15 - - 0.0
28/10:00am 12.7 9.1 9.9 83 1.4 N 19 26 10 14 - - 0.0
28/09:30am 12.5 8.7 9.7 83 1.4 NNW 20 28 11 15 - - 0.0
28/09:00am 12.4 8.6 9.2 81 1.6 N 19 28 10 15 - - 0.2
28/08:30am 12.0 8.5 8.8 81 1.6 N 17 24 9 13 - - 0.2
28/08:00am 11.8 9.0 8.5 80 1.6 N 13 19 7 10 - - 0.2
28/07:30am 11.7 7.7 8.2 79 1.7 N 19 26 10 14 - - 0.2
28/07:00am 11.6 8.3 8.1 79 1.7 N 15 20 8 11 - - 0.2
28/06:30am 11.8 9.2 7.9 77 1.9 N 11 20 6 11 - - 0.2
28/06:00am 12.2 8.6 8.3 77 1.9 N 17 20 9 11 - - 0.2
28/05:30am 12.3 9.3 7.8 74 2.2 N 13 22 7 12 - - 0.2
28/05:00am 12.2 8.3 7.3 72 2.4 N 17 22 9 12 - - 0.2
28/04:30am 12.3 8.0 7.0 70 2.6 N 19 24 10 13 - - 0.2
28/04:00am 12.4 8.8 6.9 69 2.6 N 15 22 8 12 - - 0.2
28/03:30am 12.2 7.7 6.3 67 2.8 N 19 26 10 14 - - 0.2
28/03:00am 11.8 8.1 6.3 69 2.6 N 15 20 8 11 - - 0.2
28/02:30am 12.0 8.3 6.1 67 2.8 N 15 20 8 11 - - 0.2
28/02:00am 12.3 8.5 5.9 65 3.0 N 15 22 8 12 - - 0.2
28/01:30am 12.6 8.1 6.0 64 3.1 N 19 26 10 14 - - 0.2
28/01:00am 12.6 8.8 6.0 64 3.1 N 15 20 8 11 - - 0.2
28/12:30am 13.4 9.2 5.8 60 3.6 N 17 26 9 14 - - 0.2
28/12:00am 14.3 8.8 5.7 56 4.1 N 24 35 13 19 - - 0.2
 
Date/Time
CST
Tmp

°C
App
Tmp
°C
Dew
Point
°C
Rel
Hum
%
Delta-T

°C
Wind Press
QNH
hPa
Press
MSL
hPa
Rain
since
9 am
mm
Dir
 
Spd
km/h
Gust
km/h
Spd
kts
Gust
kts
27/11:30pm 14.8 9.6 5.6 54 4.4 N 22 32 12 17 - - 0.2
27/11:00pm 14.5 9.3 5.6 55 4.2 N 22 30 12 16 - - 0.2
27/10:30pm 14.7 8.8 5.8 55 4.3 N 26 41 14 22 - - 0.2
27/10:00pm 15.1 8.7 5.3 52 4.6 N 28 43 15 23 - - 0.2
27/09:30pm 15.3 9.3 5.5 52 4.7 N 26 37 14 20 - - 0.2
27/09:00pm 15.4 9.8 5.3 51 4.8 N 24 35 13 19 - - 0.2
27/08:30pm 15.9 9.5 5.2 49 5.1 N 28 37 15 20 - - 0.2
27/08:00pm 15.9 9.1 5.2 49 5.1 N 30 46 16 25 - - 0.2
27/07:30pm 15.6 9.7 5.8 52 4.7 N 26 37 14 20 - - 0.2
27/07:00pm 15.8 10.3 6.0 52 4.7 N 24 35 13 19 - - 0.2
27/06:30pm 15.9 10.1 6.1 52 4.8 N 26 39 14 21 - - 0.2
27/06:00pm 15.9 10.5 6.3 53 4.7 N 24 35 13 19 - - 0.2
27/05:30pm 15.6 9.9 6.9 56 4.3 N 26 33 14 18 - - 0.2
27/05:00pm 15.4 9.7 6.9 57 4.2 N 26 41 14 22 - - 0.2
27/04:30pm 15.2 9.3 7.3 59 3.9 N 28 39 15 21 - - 0.2
27/04:00pm 15.2 9.3 7.3 59 3.9 N 28 39 15 21 - - 0.2
27/03:30pm 15.3 9.4 7.3 59 4.0 N 28 41 15 22 - - 0.2
27/03:00pm 15.4 9.5 7.7 60 3.8 N 28 41 15 22 - - 0.2
27/02:30pm 15.2 9.4 8.0 62 3.6 N 28 41 15 22 - - 0.2
27/02:02pm 14.8 9.0 7.8 63 3.5 N 28 46 15 25 - - 0.2
27/02:00pm 14.6 8.3 7.6 63 3.5 N 30 46 16 25 - - 0.2
27/01:30pm 14.5 7.7 7.1 61 3.6 N 32 48 17 26 - - 0.2
27/01:10pm 14.3 7.7 7.6 64 3.3 N 32 52 17 28 - - 0.0
27/01:00pm 14.3 7.0 7.1 62 3.5 N 35 48 19 26 - - 0.0
27/12:33pm 14.1 7.4 7.4 64 3.3 N 32 52 17 28 - - 0.0
27/12:30pm 14.1 7.5 7.6 65 3.2 N 32 46 17 25 - - 0.0
27/12:00pm 13.6 6.8 6.9 64 3.3 N 32 44 17 24 - - 0.0
27/11:30am 13.9 6.8 6.5 61 3.6 N 33 50 18 27 - - 0.0
27/11:01am 14.0 7.5 6.4 60 3.7 N 30 50 16 27 - - 0.0
27/11:00am 14.0 7.1 6.4 60 3.7 N 32 50 17 27 - - 0.0
27/10:30am 14.2 7.2 6.1 58 3.9 N 32 43 17 23 - - 0.0
27/10:00am 13.5 7.5 5.4 58 3.8 N 26 35 14 19 - - 0.0
27/09:30am 13.4 6.7 5.6 59 3.7 N 30 43 16 23 - - 0.0
27/09:00am 12.7 6.0 5.4 61 3.4 N 30 43 16 23 - - 0.0
27/08:30am 11.5 6.2 5.2 65 2.9 N 22 35 12 19 - - 0.0
27/08:00am 11.0 6.1 5.1 67 2.7 N 20 28 11 15 - - 0.0
27/07:30am 10.6 6.3 5.2 69 2.5 NNE 17 26 9 14 - - 0.0
27/07:00am 10.7 6.0 5.3 69 2.5 NNE 19 28 10 15 - - 0.0
27/06:30am 10.6 6.3 5.4 70 2.4 N 17 22 9 12 - - 0.0
27/06:00am 10.6 6.0 5.4 70 2.4 N 19 26 10 14 - - 0.0
27/05:30am 10.9 6.1 5.7 70 2.4 N 20 30 11 16 - - 0.0
27/05:00am 10.7 5.9 5.7 71 2.3 N 20 30 11 16 - - 0.0
27/04:30am 10.6 5.4 5.6 71 2.3 N 22 32 12 17 - - 0.0
27/04:00am 10.9 5.7 5.7 70 2.4 N 22 28 12 15 - - 0.0
27/03:30am 11.2 6.4 5.5 68 2.6 N 20 28 11 15 - - 0.0
27/03:00am 11.2 7.0 5.5 68 2.6 N 17 22 9 12 - - 0.0
27/02:30am 11.2 7.3 5.3 67 2.7 NNE 15 20 8 11 - - 0.0
27/02:00am 10.8 6.8 4.9 67 2.7 NNE 15 22 8 12 - - 0.0
27/01:30am 10.3 5.9 4.9 69 2.4 NE 17 20 9 11 - - 0.0
27/01:00am 10.2 6.3 5.4 72 2.2 NE 15 19 8 10 - - 0.0
27/12:30am 10.4 6.6 5.8 73 2.1 NE 15 20 8 11 - - 0.0
27/12:00am 10.2 6.4 6.0 75 1.9 NE 15 19 8 10 - - 0.0
 
Date/Time
CST
Tmp

°C
App
Tmp
°C
Dew
Point
°C
Rel
Hum
%
Delta-T

°C
Wind Press
QNH
hPa
Press
MSL
hPa
Rain
since
9 am
mm
Dir
 
Spd
km/h
Gust
km/h
Spd
kts
Gust
kts
26/11:30pm 10.2 6.1 6.2 76 1.9 NE 17 20 9 11 - - 0.0
26/11:00pm 10.2 6.5 6.4 77 1.8 NNE 15 20 8 11 - - 0.0
26/10:30pm 10.3 6.6 6.5 77 1.8 NE 15 19 8 10 - - 0.0
26/10:00pm 10.4 7.1 6.5 77 1.8 NE 13 19 7 10 - - 0.0
26/09:30pm 10.7 7.4 6.6 76 1.9 NNE 13 19 7 10 - - 0.0
26/09:00pm 10.7 7.5 7.0 78 1.8 NE 13 19 7 10 - - 0.0
26/08:30pm 10.5 7.4 7.2 80 1.6 NE 13 19 7 10 - - 0.0
26/08:00pm 10.6 7.9 7.5 81 1.5 NE 11 15 6 8 - - 0.0
26/07:30pm 10.7 8.1 7.8 82 1.4 NE 11 13 6 7 - - 0.0
26/07:00pm 11.1 9.0 8.1 82 1.5 NE 9 13 5 7 - - 0.0
26/06:30pm 11.6 9.5 8.3 80 1.6 NNE 9 13 5 7 - - 0.0
26/06:00pm 12.1 10.1 8.8 80 1.6 N 9 13 5 7 - - 0.0
26/05:30pm 12.7 10.0 8.8 77 2.0 N 13 17 7 9 - - 0.0
26/05:00pm 13.3 10.7 9.2 76 2.1 N 13 17 7 9 - - 0.0
26/04:30pm 13.9 10.8 8.9 72 2.5 N 15 20 8 11 - - 0.0
26/04:00pm 14.3 11.4 9.7 74 2.4 N 15 19 8 10 - - 0.0
26/03:30pm 14.5 11.7 9.9 74 2.4 N 15 19 8 10 - - 0.0
26/03:00pm 14.7 12.3 10.1 74 2.4 NNW 13 19 7 10 - - 0.0
26/02:30pm 14.5 11.7 9.9 74 2.4 N 15 20 8 11 - - 0.0
26/02:00pm 14.6 11.8 10.0 74 2.4 NNW 15 22 8 12 - - 0.0
26/01:30pm 14.4 11.6 10.0 75 2.3 NNW 15 22 8 12 - - 0.0
26/01:00pm 14.1 11.8 10.3 78 2.0 N 13 17 7 9 - - 0.0
26/12:30pm 12.7 10.2 9.7 82 1.5 NNW 13 19 7 10 - - 0.0
26/12:00pm 12.6 10.6 10.3 86 1.2 NNW 11 17 6 9 - - 0.0
26/11:30am 12.2 9.8 10.1 87 1.1 N 13 19 7 10 - - 0.0
26/11:00am 11.8 9.8 10.2 90 0.8 N 11 19 6 10 - - 0.0
26/10:30am 12.0 9.3 10.4 90 0.8 N 15 20 8 11 - - 0.0
26/10:00am 11.6 9.2 10.2 91 0.7 N 13 17 7 9 - - 0.0
26/09:30am 11.4 10.1 10.0 91 0.7 N 7 9 4 5 - - 0.0
26/09:00am 11.1 9.9 9.7 91 0.7 N 6 9 3 5 - - 1.2
26/08:30am 11.0 9.2 9.6 91 0.7 N 9 13 5 7 - - 1.2
26/08:00am 10.3 8.7 8.9 91 0.7 NNE 7 9 4 5 - - 1.2
26/07:30am 10.4 8.5 9.0 91 0.7 NE 9 11 5 6 - - 1.2
26/07:00am 10.4 8.9 9.0 91 0.7 NNE 7 9 4 5 - - 1.2
26/06:30am 10.4 8.9 9.0 91 0.7 NE 7 11 4 6 - - 1.2
26/06:00am 10.7 9.4 9.3 91 0.7 NE 6 9 3 5 - - 1.2
26/05:30am 10.7 9.4 9.3 91 0.7 N 6 7 3 4 - - 1.2
26/05:00am 10.8 9.6 9.4 91 0.7 N 6 7 3 4 - - 1.2
26/04:30am 11.3 10.2 9.9 91 0.7 N 6 9 3 5 - - 1.2
26/04:00am 11.6 10.4 10.2 91 0.7 N 7 11 4 6 - - 1.2
26/03:30am 11.8 10.6 10.4 91 0.7 N 7 11 4 6 - - 1.2
26/03:00am 11.9 10.4 10.5 91 0.7 N 9 13 5 7 - - 1.2
26/02:30am 11.6 10.6 10.2 91 0.7 NNW 6 7 3 4 - - 1.2
26/02:00am 11.9 10.7 10.3 90 0.8 NNW 7 9 4 5 - - 1.2
26/01:30am 11.9 11.3 10.5 91 0.7 NNW 4 6 2 3 - - 1.2
26/01:00am 11.9 11.3 10.5 91 0.7 NNW 4 7 2 4 - - 1.2
26/12:30am 11.6 10.6 10.2 91 0.7 NNW 6 6 3 3 - - 1.2
26/12:00am 10.9 10.0 9.3 90 0.8 NNW 4 6 2 3 - - 1.2
 
Date/Time
CST
Tmp

°C
App
Tmp
°C
Dew
Point
°C
Rel
Hum
%
Delta-T

°C
Wind Press
QNH
hPa
Press
MSL
hPa
Rain
since
9 am
mm
Dir
 
Spd
km/h
Gust
km/h
Spd
kts
Gust
kts
25/11:30pm 11.3 10.9 9.7 90 0.8 NW 2 6 1 3 - - 1.2
25/11:00pm 11.6 11.3 10.0 90 0.8 NW 2 4 1 2 - - 1.2
25/10:30pm 11.2 10.4 9.6 90 0.8 NNW 4 6 2 3 - - 1.2
25/10:00pm 11.6 11.3 10.0 90 0.8 NNW 2 6 1 3 - - 1.2
25/09:30pm 11.8 11.9 10.0 89 0.9 CALM 0 2 0 1 - - 1.2
25/09:00pm 12.2 11.2 10.4 89 0.9 NNW 6 7 3 4 - - 1.2
25/08:30pm 12.5 12.3 10.6 88 1.0 NNW 2 6 1 3 - - 1.2
25/08:00pm 12.8 11.9 10.7 87 1.1 NW 6 7 3 4 - - 1.2

Latest Capital City Observations: Canberra | Sydney | Melbourne | Brisbane | Adelaide | Perth | Hobart | Darwin

Other Formats:

Comma delimited format used in spreadsheet applications
http://www.bom.gov.au/fwo/IDS60901/IDS60901.94808.axf

JavaScript Object Notation format (JSON) in row-major order
http://www.bom.gov.au/fwo/IDS60901/IDS60901.94808.json